Terminal Aerodrome Forecast
Issued by NWS

Home | Current Version | Previous Version | Graphics & Text | Print | Product List | Glossary On
Versions: 1 2 3 4 5 6 7 8 9 10 11 12 13
000
FTUS45 KGGW 221736
TAFGDV
TAF
KGDV 221736Z 2218/2318 27014KT P6SM SCT060
     FM222100 27012G19KT P6SM VCSH BKN080
     FM230200 25008KT P6SM FEW150
      AMD LTD TO CLD VIS AND WIND=

USA.gov is the U.S. government's official web portal to all federal, state and local government web resources and services.